Time;durP1;ratioP1;P1;durP2;ratioP2;P2;SDS_P1;SDS_P2;PMS_P1;PMS_P2;Temp;Humidity;BMP_temperature;BMP_pressure;BME280_temperature;BME280_humidity;BME280_pressure;Samples;Min_cycle;Max_cycle;Signal;HPM_P1;HPM_P2
2022/07/05 00:00:44;;;;;;;2.83;0.70;;;;;;;;;;5015188;28;20484;-61
2022/07/05 00:03:11;;;;;;;1.53;0.60;;;;;;;;;;5015678;28;20022;-61
2022/07/05 00:05:38;;;;;;;1.03;0.40;;;;;;;;;;5015286;28;20030;-61
2022/07/05 00:08:05;;;;;;;1.07;0.67;;;;;;;;;;5015544;28;20026;-60
2022/07/05 00:10:32;;;;;;;2.53;1.17;;;;;;;;;;5015165;28;20026;-61
2022/07/05 00:12:59;;;;;;;0.93;0.37;;;;;;;;;;5010081;28;20125;-61
2022/07/05 00:15:26;;;;;;;0.73;0.50;;;;;;;;;;5010094;28;20062;-61
2022/07/05 00:17:53;;;;;;;0.37;0.27;;;;;;;;;;5010175;28;20122;-61
2022/07/05 00:20:19;;;;;;;0.30;0.30;;;;;;;;;;5009999;28;20026;-60
2022/07/05 00:22:46;;;;;;;0.90;0.60;;;;;;;;;;5013843;28;20026;-61
2022/07/05 00:25:13;;;;;;;0.97;0.60;;;;;;;;;;5014708;28;20026;-61
2022/07/05 00:27:39;;;;;;;1.10;0.57;;;;;;;;;;5015528;28;20033;-61
2022/07/05 00:30:06;;;;;;;5.20;0.50;;;;;;;;;;5015036;28;20436;-61
2022/07/05 00:32:33;;;;;;;0.53;0.47;;;;;;;;;;5014714;28;20076;-60
2022/07/05 00:35:00;;;;;;;0.93;0.40;;;;;;;;;;5010438;28;20026;-61
2022/07/05 00:37:26;;;;;;;1.03;0.50;;;;;;;;;;5009629;28;20192;-61
2022/07/05 00:39:53;;;;;;;0.27;0.27;;;;;;;;;;5009698;28;20037;-61
2022/07/05 00:42:20;;;;;;;0.50;0.40;;;;;;;;;;5008995;28;20485;-61
2022/07/05 00:44:46;;;;;;;0.73;0.27;;;;;;;;;;5012964;28;20381;-60
2022/07/05 00:47:13;;;;;;;0.57;0.47;;;;;;;;;;5014769;28;20038;-61
2022/07/05 00:49:41;;;;;;;1.57;0.97;;;;;;;;;;5014855;28;20057;-60
2022/07/05 00:52:07;;;;;;;1.37;0.93;;;;;;;;;;5014060;28;20105;-61
2022/07/05 00:54:36;;;;;;;3.70;0.67;;;;;;;;;;5014815;28;20029;-61
2022/07/05 00:57:03;;;;;;;1.70;0.50;;;;;;;;;;5010519;28;20056;-61
2022/07/05 00:59:31;;;;;;;0.83;0.70;;;;;;;;;;5008113;28;20105;-62
2022/07/05 01:01:58;;;;;;;4.13;0.80;;;;;;;;;;5009079;28;20346;-61
2022/07/05 01:04:25;;;;;;;2.13;1.07;;;;;;;;;;5007814;28;20097;-60
2022/07/05 01:06:52;;;;;;;0.83;0.60;;;;;;;;;;5012325;28;20100;-61
2022/07/05 01:09:20;;;;;;;0.67;0.40;;;;;;;;;;5014425;28;20022;-61
2022/07/05 01:11:47;;;;;;;3.97;1.20;;;;;;;;;;5014195;28;20022;-61
2022/07/05 01:14:16;;;;;;;1.00;0.60;;;;;;;;;;5013969;28;20064;-60
2022/07/05 01:16:43;;;;;;;3.90;1.00;;;;;;;;;;5014020;28;20030;-61
2022/07/05 01:19:11;;;;;;;0.83;0.63;;;;;;;;;;5010572;28;20022;-60
2022/07/05 01:21:40;;;;;;;1.00;0.70;;;;;;;;;;5008832;28;20025;-61
2022/07/05 01:24:10;;;;;;;0.70;0.47;;;;;;;;;;5008390;28;20029;-61
2022/07/05 01:26:37;;;;;;;1.70;0.70;;;;;;;;;;5008369;28;20386;-60
2022/07/05 01:29:04;;;;;;;0.80;0.70;;;;;;;;;;5011481;28;20018;-61
2022/07/05 01:31:31;;;;;;;1.33;1.03;;;;;;;;;;5014024;28;20483;-60
2022/07/05 01:33:57;;;;;;;2.23;1.40;;;;;;;;;;5013904;28;20026;-61
2022/07/05 01:36:24;;;;;;;2.57;1.23;;;;;;;;;;5013539;28;20033;-61
2022/07/05 01:38:51;;;;;;;1.47;1.23;;;;;;;;;;5013862;28;20026;-60
2022/07/05 01:41:18;;;;;;;7.97;3.57;;;;;;;;;;5010377;28;20501;-61
2022/07/05 01:43:44;;;;;;;4.50;2.20;;;;;;;;;;5008690;28;20022;-60
2022/07/05 01:46:11;;;;;;;3.50;2.30;;;;;;;;;;5008204;28;20030;-60
2022/07/05 01:48:40;;;;;;;17.77;1.80;;;;;;;;;;5007996;28;20486;-61
2022/07/05 01:51:23;;;;;;;7.30;2.03;;;;;;;;;;5011033;28;20037;-60
2022/07/05 01:53:52;;;;;;;2.20;1.40;;;;;;;;;;5013538;28;20033;-61
2022/07/05 01:56:19;;;;;;;7.07;2.20;;;;;;;;;;5013319;28;20026;-60
2022/07/05 01:58:46;;;;;;;4.93;2.23;;;;;;;;;;5013118;28;20045;-61
2022/07/05 02:01:13;;;;;;;2.60;2.00;;;;;;;;;;5013543;28;20040;-60
2022/07/05 02:03:40;;;;;;;3.07;2.33;;;;;;;;;;5008862;28;20029;-61
2022/07/05 02:06:10;;;;;;;4.00;1.30;;;;;;;;;;5008077;28;20417;-60
2022/07/05 02:08:36;;;;;;;3.03;2.17;;;;;;;;;;5007839;28;20539;-61
2022/07/05 02:11:06;;;;;;;2.57;1.67;;;;;;;;;;5007412;28;20444;-61
2022/07/05 02:13:32;;;;;;;5.40;1.87;;;;;;;;;;5010847;28;20072;-61
2022/07/05 02:15:59;;;;;;;5.00;1.70;;;;;;;;;;5013044;28;20026;-61
2022/07/05 02:18:26;;;;;;;13.40;1.87;;;;;;;;;;5013205;28;20579;-61
2022/07/05 02:20:52;;;;;;;2.43;1.13;;;;;;;;;;5012725;28;20028;-61
2022/07/05 02:23:19;;;;;;;2.90;1.70;;;;;;;;;;5013167;28;20101;-61
2022/07/05 02:25:46;;;;;;;4.17;1.90;;;;;;;;;;5009642;28;20037;-61
2022/07/05 02:28:13;;;;;;;2.47;1.13;;;;;;;;;;5007886;28;20026;-61
2022/07/05 02:30:40;;;;;;;4.50;1.87;;;;;;;;;;5007569;28;20026;-61
2022/07/05 02:33:07;;;;;;;1.67;1.17;;;;;;;;;;5007881;28;20022;-60
2022/07/05 02:35:33;;;;;;;2.07;1.40;;;;;;;;;;5010234;28;20371;-60
2022/07/05 02:38:00;;;;;;;6.00;1.10;;;;;;;;;;5012731;28;20112;-61
2022/07/05 02:40:26;;;;;;;1.20;0.90;;;;;;;;;;4995120;28;20381;-61
2022/07/05 02:42:53;;;;;;;3.00;1.87;;;;;;;;;;5012378;28;20477;-60
2022/07/05 02:45:20;;;;;;;4.53;2.20;;;;;;;;;;5012011;28;20512;-60
2022/07/05 02:47:46;;;;;;;5.93;1.90;;;;;;;;;;5009972;28;20033;-60
2022/07/05 02:50:13;;;;;;;2.97;1.37;;;;;;;;;;5007433;28;20048;-61
2022/07/05 02:52:40;;;;;;;1.17;0.97;;;;;;;;;;5007551;28;20108;-61
2022/07/05 02:55:07;;;;;;;3.00;1.50;;;;;;;;;;5007445;28;20030;-60
2022/07/05 02:57:33;;;;;;;1.77;1.07;;;;;;;;;;5008782;28;20485;-60
2022/07/05 03:00:00;;;;;;;4.43;2.00;;;;;;;;;;5012008;28;20099;-61
2022/07/05 03:02:27;;;;;;;3.97;1.70;;;;;;;;;;5012622;28;20029;-61
2022/07/05 03:04:53;;;;;;;1.87;1.30;;;;;;;;;;5012153;28;20026;-60
2022/07/05 03:07:20;;;;;;;4.47;1.60;;;;;;;;;;5012565;28;20026;-61
2022/07/05 03:09:47;;;;;;;1.80;1.03;;;;;;;;;;5010406;28;20026;-61
2022/07/05 03:12:13;;;;;;;1.80;1.40;;;;;;;;;;5007283;28;20033;-60
2022/07/05 03:14:40;;;;;;;2.13;1.23;;;;;;;;;;5008795;28;20497;-61
2022/07/05 03:17:07;;;;;;;3.23;1.73;;;;;;;;;;5011140;28;20410;-60
2022/07/05 03:19:33;;;;;;;1.70;1.43;;;;;;;;;;5012483;28;20104;-61
2022/07/05 03:22:00;;;;;;;3.70;1.50;;;;;;;;;;5015766;28;20030;-60
2022/07/05 03:24:27;;;;;;;1.00;0.77;;;;;;;;;;5016483;28;20037;-60
2022/07/05 03:26:53;;;;;;;2.50;1.47;;;;;;;;;;5016555;28;20653;-60
2022/07/05 03:29:20;;;;;;;3.70;1.40;;;;;;;;;;5016406;28;20022;-60
2022/07/05 03:31:47;;;;;;;3.40;1.63;;;;;;;;;;5014826;28;20030;-61
2022/07/05 03:34:13;;;;;;;4.37;1.77;;;;;;;;;;5011118;28;20061;-60
2022/07/05 03:36:40;;;;;;;8.43;1.90;;;;;;;;;;5011103;28;20116;-61
2022/07/05 03:39:07;;;;;;;5.63;2.00;;;;;;;;;;5010788;28;20554;-60
2022/07/05 03:41:34;;;;;;;3.43;1.40;;;;;;;;;;5011534;28;20099;-60
2022/07/05 03:44:01;;;;;;;3.83;2.07;;;;;;;;;;5016115;28;20094;-60
2022/07/05 03:46:27;;;;;;;3.73;1.90;;;;;;;;;;5015660;28;20072;-60
2022/07/05 03:48:54;;;;;;;3.13;2.00;;;;;;;;;;5015531;28;20036;-60
2022/07/05 03:51:21;;;;;;;3.17;1.13;;;;;;;;;;5015630;28;20029;-60
2022/07/05 03:53:48;;;;;;;1.40;1.13;;;;;;;;;;5015089;28;20018;-60
2022/07/05 03:56:19;;;;;;;3.37;1.23;;;;;;;;;;5010528;28;20113;-60
2022/07/05 03:58:49;;;;;;;1.00;0.60;;;;;;;;;;5010963;28;20037;-60
2022/07/05 04:01:16;;;;;;;0.93;0.83;;;;;;;;;;5010655;28;20028;-61
2022/07/05 04:03:42;;;;;;;3.63;1.33;;;;;;;;;;5011148;28;20037;-60
2022/07/05 04:06:10;;;;;;;3.60;1.80;;;;;;;;;;5015563;28;20485;-60
2022/07/05 04:08:37;;;;;;;2.57;1.33;;;;;;;;;;5015607;28;20037;-60
2022/07/05 04:11:04;;;;;;;2.87;1.37;;;;;;;;;;5015389;28;20466;-60
2022/07/05 04:13:30;;;;;;;2.00;1.20;;;;;;;;;;5015572;28;20505;-61
2022/07/05 04:15:57;;;;;;;1.90;1.10;;;;;;;;;;5014870;28;20042;-60
2022/07/05 04:18:24;;;;;;;3.77;2.00;;;;;;;;;;5010466;28;20029;-60
2022/07/05 04:20:50;;;;;;;1.80;0.93;;;;;;;;;;5010396;28;20093;-60
2022/07/05 04:23:17;;;;;;;1.00;0.73;;;;;;;;;;5010022;28;20512;-61
2022/07/05 04:25:44;;;;;;;1.73;1.33;;;;;;;;;;5009227;28;20032;-62
2022/07/05 04:28:10;;;;;;;3.53;1.73;;;;;;;;;;5014972;28;20026;-60
2022/07/05 04:30:37;;;;;;;2.60;1.30;;;;;;;;;;5015481;28;20026;-61
2022/07/05 04:33:04;;;;;;;5.23;2.00;;;;;;;;;;5015334;28;20093;-61
2022/07/05 04:35:30;;;;;;;1.23;0.77;;;;;;;;;;5015213;28;20141;-61
2022/07/05 04:37:57;;;;;;;2.27;1.10;;;;;;;;;;5015103;28;20355;-60
2022/07/05 04:40:23;;;;;;;0.53;0.50;;;;;;;;;;5010031;28;20600;-61
2022/07/05 04:42:50;;;;;;;2.80;1.33;;;;;;;;;;5010014;28;20500;-61
2022/07/05 04:45:17;;;;;;;0.73;0.70;;;;;;;;;;5009570;28;20038;-61
2022/07/05 04:47:43;;;;;;;1.70;1.20;;;;;;;;;;5009515;28;20500;-60
2022/07/05 04:50:10;;;;;;;0.63;0.53;;;;;;;;;;5014354;28;20121;-60
2022/07/05 04:52:37;;;;;;;1.83;0.87;;;;;;;;;;5014901;28;20025;-60
2022/07/05 04:55:04;;;;;;;0.43;0.43;;;;;;;;;;5014735;28;20057;-60
2022/07/05 04:57:40;;;;;;;1.07;0.77;;;;;;;;;;5014729;28;20038;-60
2022/07/05 05:00:07;;;;;;;0.77;0.50;;;;;;;;;;5014031;28;20477;-61
2022/07/05 05:02:34;;;;;;;2.43;1.17;;;;;;;;;;5009684;28;20033;-60
2022/07/05 05:05:01;;;;;;;0.90;0.80;;;;;;;;;;5009669;28;20041;-60
2022/07/05 05:07:29;;;;;;;5.73;1.97;;;;;;;;;;5009665;28;20026;-60
2022/07/05 05:09:55;;;;;;;1.70;1.07;;;;;;;;;;5009146;28;20028;-61
2022/07/05 05:12:22;;;;;;;1.63;1.33;;;;;;;;;;5013161;28;20022;-61
2022/07/05 05:14:49;;;;;;;2.23;1.23;;;;;;;;;;5014279;28;20049;-60
2022/07/05 05:17:16;;;;;;;1.40;1.03;;;;;;;;;;5013714;28;20041;-60
2022/07/05 05:19:44;;;;;;;1.30;1.00;;;;;;;;;;5014356;28;20045;-61
2022/07/05 05:22:11;;;;;;;1.17;0.90;;;;;;;;;;5014190;28;20034;-60
2022/07/05 05:24:38;;;;;;;1.67;1.27;;;;;;;;;;5009404;28;20033;-60
2022/07/05 05:27:05;;;;;;;1.30;0.90;;;;;;;;;;5009241;28;20053;-60
2022/07/05 05:29:31;;;;;;;0.93;0.83;;;;;;;;;;5009180;28;20441;-60
2022/07/05 05:31:59;;;;;;;8.80;1.23;;;;;;;;;;5008990;28;20536;-61
2022/07/05 05:34:27;;;;;;;1.43;1.00;;;;;;;;;;5012726;28;20029;-60
2022/07/05 05:36:54;;;;;;;0.57;0.57;;;;;;;;;;5013838;28;20041;-60
2022/07/05 05:39:20;;;;;;;0.93;0.83;;;;;;;;;;5013928;28;20388;-60
2022/07/05 05:41:47;;;;;;;3.23;0.93;;;;;;;;;;5013816;28;20026;-60
2022/07/05 05:44:14;;;;;;;2.03;1.10;;;;;;;;;;5013786;28;20116;-60
2022/07/05 05:46:40;;;;;;;1.30;1.00;;;;;;;;;;5009617;28;20029;-60
2022/07/05 05:49:07;;;;;;;0.77;0.70;;;;;;;;;;5008475;28;20030;-60
2022/07/05 05:51:34;;;;;;;11.13;1.20;;;;;;;;;;5008869;28;20029;-60
2022/07/05 05:54:00;;;;;;;1.00;0.80;;;;;;;;;;5008679;28;20032;-60
2022/07/05 05:56:27;;;;;;;0.80;0.60;;;;;;;;;;5012221;28;20112;-60
2022/07/05 05:58:54;;;;;;;0.70;0.60;;;;;;;;;;5013311;28;20535;-60
2022/07/05 06:01:20;;;;;;;0.63;0.63;;;;;;;;;;5013617;28;20381;-61
2022/07/05 06:03:47;;;;;;;1.57;0.97;;;;;;;;;;5013574;28;20022;-60
2022/07/05 06:06:14;;;;;;;1.10;1.00;;;;;;;;;;5012835;28;20022;-60
2022/07/05 06:08:40;;;;;;;2.00;1.03;;;;;;;;;;5009852;28;20026;-60
2022/07/05 06:11:07;;;;;;;1.90;0.80;;;;;;;;;;5008512;28;20034;-60
2022/07/05 06:13:33;;;;;;;10.83;0.80;;;;;;;;;;5008350;28;20038;-60
2022/07/05 06:16:00;;;;;;;1.07;0.57;;;;;;;;;;5007833;28;20104;-61
2022/07/05 06:18:27;;;;;;;1.07;0.70;;;;;;;;;;5011275;28;20107;-61
2022/07/05 06:20:53;;;;;;;1.30;0.83;;;;;;;;;;5013255;28;20123;-61
2022/07/05 06:23:20;;;;;;;1.70;0.90;;;;;;;;;;5012669;28;20409;-61
2022/07/05 06:25:47;;;;;;;0.77;0.57;;;;;;;;;;5013173;28;20504;-60
2022/07/05 06:28:14;;;;;;;2.13;1.37;;;;;;;;;;5013142;28;20014;-60
2022/07/05 06:30:40;;;;;;;1.23;0.70;;;;;;;;;;5009888;28;20034;-60
2022/07/05 06:33:07;;;;;;;1.30;0.83;;;;;;;;;;5008260;28;20029;-60
2022/07/05 06:35:34;;;;;;;1.53;0.77;;;;;;;;;;5007972;28;20428;-61
2022/07/05 06:38:02;;;;;;;1.03;0.70;;;;;;;;;;5007780;28;20092;-61
2022/07/05 06:40:35;;;;;;;2.30;0.80;;;;;;;;;;5010164;28;20026;-60
2022/07/05 06:43:03;;;;;;;1.50;0.83;;;;;;;;;;5012910;28;20414;-60
2022/07/05 06:45:30;;;;;;;0.63;0.53;;;;;;;;;;5012850;28;20112;-60
2022/07/05 06:47:58;;;;;;;1.93;1.33;;;;;;;;;;5012737;28;20037;-60
2022/07/05 06:50:25;;;;;;;2.00;1.13;;;;;;;;;;5011976;28;20022;-61
2022/07/05 06:52:52;;;;;;;1.10;0.63;;;;;;;;;;5009476;28;20037;-60
2022/07/05 06:55:18;;;;;;;2.97;1.00;;;;;;;;;;5007804;28;20033;-61
2022/07/05 06:57:45;;;;;;;0.43;0.43;;;;;;;;;;5007586;28;20148;-60
2022/07/05 07:00:12;;;;;;;2.63;1.20;;;;;;;;;;5007582;28;20748;-60
2022/07/05 07:02:39;;;;;;;1.40;0.83;;;;;;;;;;5010073;28;20555;-60
2022/07/05 07:05:06;;;;;;;2.00;1.30;;;;;;;;;;5012614;28;20038;-60
2022/07/05 07:10:17;;;;;;;;;;;;;;;;;;5012930;28;20049;-60
2022/07/05 07:12:44;;;;;;;1.57;0.97;;;;;;;;;;5012671;28;19918;-60
2022/07/05 07:15:11;;;;;;;0.87;0.80;;;;;;;;;;5009171;28;20030;-60
2022/07/05 07:17:37;;;;;;;1.33;0.77;;;;;;;;;;5007530;28;20112;-60
2022/07/05 07:20:04;;;;;;;1.87;1.13;;;;;;;;;;5007463;28;20026;-60
2022/07/05 07:22:31;;;;;;;0.87;0.50;;;;;;;;;;5007277;28;20026;-60
2022/07/05 07:24:58;;;;;;;0.30;0.30;;;;;;;;;;5009989;28;20116;-60
2022/07/05 07:27:24;;;;;;;0.60;0.60;;;;;;;;;;5012460;28;20029;-60
2022/07/05 07:29:51;;;;;;;1.63;0.87;;;;;;;;;;5012610;28;20022;-61
2022/07/05 07:32:18;;;;;;;0.90;0.50;;;;;;;;;;5012208;28;20025;-60
2022/07/05 07:34:45;;;;;;;1.90;1.03;;;;;;;;;;5012278;28;20037;-60
2022/07/05 07:37:13;;;;;;;2.33;0.53;;;;;;;;;;5009232;28;20627;-60
2022/07/05 07:39:41;;;;;;;1.37;0.90;;;;;;;;;;5007281;28;20105;-60
2022/07/05 07:42:08;;;;;;;0.73;0.70;;;;;;;;;;5007352;28;20034;-60
2022/07/05 07:44:35;;;;;;;0.93;0.63;;;;;;;;;;5007192;28;20034;-60
2022/07/05 07:47:02;;;;;;;1.10;0.90;;;;;;;;;;5009454;28;20114;-60
2022/07/05 07:49:28;;;;;;;9.67;1.33;;;;;;;;;;5012151;28;20022;-60
2022/07/05 07:51:55;;;;;;;1.53;1.10;;;;;;;;;;5012204;28;20026;-59
2022/07/05 07:54:22;;;;;;;1.50;1.13;;;;;;;;;;5011874;28;20388;-60
2022/07/05 07:56:48;;;;;;;1.33;0.77;;;;;;;;;;5011933;28;20030;-60
2022/07/05 07:59:15;;;;;;;0.87;0.77;;;;;;;;;;4990331;28;20032;-60
2022/07/05 08:01:42;;;;;;;2.03;1.07;;;;;;;;;;4988837;28;20023;-61
2022/07/05 08:04:08;;;;;;;1.23;0.83;;;;;;;;;;4991040;28;20026;-60
2022/07/05 08:06:35;;;;;;;1.30;0.77;;;;;;;;;;4991165;28;20027;-60
2022/07/05 08:09:02;;;;;;;1.10;1.00;;;;;;;;;;4992764;28;20031;-60
2022/07/05 08:11:28;;;;;;;1.53;1.10;;;;;;;;;;4995610;28;20062;-60
2022/07/05 08:13:55;;;;;;;0.70;0.67;;;;;;;;;;4995996;28;20026;-60
2022/07/05 08:16:22;;;;;;;4.03;0.80;;;;;;;;;;4995898;28;20045;-60
2022/07/05 08:21:39;;;;;;;1.13;0.90;;;;;;;;;;5001624;28;20049;-60
2022/07/05 08:24:07;;;;;;;1.27;0.90;;;;;;;;;;5009913;28;20045;-60
2022/07/05 08:26:34;;;;;;;1.00;0.80;;;;;;;;;;5010298;28;20018;-60
2022/07/05 08:29:02;;;;;;;2.00;0.80;;;;;;;;;;5010334;28;20042;-60
2022/07/05 08:31:29;;;;;;;0.87;0.70;;;;;;;;;;5012391;28;20072;-60
2022/07/05 08:33:56;;;;;;;1.47;0.80;;;;;;;;;;5015253;28;20466;-60
2022/07/05 08:36:24;;;;;;;1.57;1.03;;;;;;;;;;5015121;28;20025;-60
2022/07/05 08:38:51;;;;;;;0.70;0.53;;;;;;;;;;5015001;28;20032;-60
2022/07/05 08:41:19;;;;;;;0.77;0.63;;;;;;;;;;5015175;28;20033;-60
2022/07/05 08:43:47;;;;;;;2.60;1.30;;;;;;;;;;5012056;28;20018;-60
2022/07/05 08:46:15;;;;;;;0.70;0.70;;;;;;;;;;5010015;28;20396;-61
2022/07/05 08:48:47;;;;;;;0.50;0.50;;;;;;;;;;5009965;28;20025;-60
2022/07/05 08:51:20;;;;;;;1.27;0.70;;;;;;;;;;5009961;28;20045;-60
2022/07/05 08:53:47;;;;;;;4.97;0.83;;;;;;;;;;5011837;28;20392;-60
2022/07/05 08:56:15;;;;;;;4.33;0.70;;;;;;;;;;5014726;28;20085;-60
2022/07/05 08:58:42;;;;;;;1.90;1.00;;;;;;;;;;5014547;28;20029;-60
2022/07/05 09:01:09;;;;;;;1.53;1.00;;;;;;;;;;5014843;28;20030;-60
2022/07/05 09:03:40;;;;;;;1.33;0.80;;;;;;;;;;5014599;28;20105;-60
2022/07/05 09:06:08;;;;;;;0.67;0.53;;;;;;;;;;5011221;28;20376;-60
2022/07/05 09:08:39;;;;;;;1.10;0.60;;;;;;;;;;5009551;28;20495;-60
2022/07/05 09:11:13;;;;;;;1.30;0.97;;;;;;;;;;5009611;28;20026;-60
2022/07/05 09:13:40;;;;;;;1.83;0.80;;;;;;;;;;5008999;28;20032;-60
2022/07/05 09:16:07;;;;;;;1.43;0.83;;;;;;;;;;5011868;28;20362;-60
2022/07/05 09:18:46;;;;;;;0.93;0.73;;;;;;;;;;5014446;28;20041;-60
2022/07/05 09:21:13;;;;;;;0.77;0.50;;;;;;;;;;5014443;28;20030;-60
2022/07/05 09:23:40;;;;;;;1.33;0.77;;;;;;;;;;5014093;28;20454;-60
2022/07/05 09:26:07;;;;;;;0.77;0.70;;;;;;;;;;5013811;28;20026;-60
2022/07/05 09:28:34;;;;;;;0.97;0.60;;;;;;;;;;5011189;28;20056;-60
2022/07/05 09:31:00;;;;;;;0.60;0.60;;;;;;;;;;5009335;28;20112;-60
2022/07/05 09:33:27;;;;;;;0.47;0.47;;;;;;;;;;5008581;28;20084;-60
2022/07/05 09:35:57;;;;;;;4.13;0.90;;;;;;;;;;5008742;28;20048;-60
2022/07/05 09:38:24;;;;;;;1.77;1.07;;;;;;;;;;5011449;28;20080;-60
2022/07/05 09:40:56;;;;;;;1.53;1.00;;;;;;;;;;5013980;28;20021;-61
2022/07/05 09:43:23;;;;;;;0.93;0.80;;;;;;;;;;5013921;28;20477;-60
2022/07/05 09:45:53;;;;;;;2.57;1.00;;;;;;;;;;5013861;28;20030;-60
2022/07/05 09:48:20;;;;;;;1.20;0.80;;;;;;;;;;5013356;28;20060;-60
2022/07/05 09:50:50;;;;;;;0.50;0.50;;;;;;;;;;5010848;28;20029;-60
2022/07/05 09:53:16;;;;;;;2.83;1.87;;;;;;;;;;5008914;28;20477;-60
2022/07/05 09:55:43;;;;;;;1.47;1.10;;;;;;;;;;5008705;28;20385;-60
2022/07/05 09:58:13;;;;;;;0.60;0.60;;;;;;;;;;5008659;28;20030;-60
2022/07/05 10:00:39;;;;;;;0.37;0.30;;;;;;;;;;5011202;28;20030;-60
2022/07/05 10:03:07;;;;;;;0.80;0.60;;;;;;;;;;5013364;28;20504;-60
2022/07/05 10:05:34;;;;;;;0.30;0.30;;;;;;;;;;5013476;28;20022;-60
2022/07/05 10:08:01;;;;;;;4.23;0.90;;;;;;;;;;5013577;28;20505;-60
2022/07/05 10:10:28;;;;;;;3.40;1.00;;;;;;;;;;5013179;28;20033;-60
2022/07/05 10:12:56;;;;;;;1.53;0.97;;;;;;;;;;5010371;28;20022;-60
2022/07/05 10:15:25;;;;;;;0.43;0.43;;;;;;;;;;5008348;28;20429;-60
2022/07/05 10:18:04;;;;;;;0.50;0.50;;;;;;;;;;5007681;28;20113;-60
2022/07/05 10:20:43;;;;;;;1.67;0.70;;;;;;;;;;5008384;28;20030;-60
2022/07/05 10:23:14;;;;;;;0.60;0.50;;;;;;;;;;5011097;28;20030;-60
2022/07/05 10:25:42;;;;;;;0.97;0.77;;;;;;;;;;5012811;28;20037;-60
2022/07/05 10:28:10;;;;;;;12.37;1.17;;;;;;;;;;5013227;28;20085;-61
2022/07/05 10:30:37;;;;;;;0.70;0.60;;;;;;;;;;5013206;28;20400;-60
2022/07/05 10:33:04;;;;;;;14.10;1.53;;;;;;;;;;5013011;28;20022;-60
2022/07/05 10:35:31;;;;;;;0.70;0.60;;;;;;;;;;5009296;28;20026;-61
2022/07/05 10:37:59;;;;;;;2.23;1.40;;;;;;;;;;5007926;28;20034;-60
2022/07/05 10:40:26;;;;;;;1.23;0.80;;;;;;;;;;5007443;28;20112;-60
2022/07/05 10:42:56;;;;;;;0.50;0.50;;;;;;;;;;5007378;28;20034;-60
2022/07/05 10:45:25;;;;;;;0.93;0.87;;;;;;;;;;5011040;28;20045;-60
2022/07/05 10:48:10;;;;;;;1.13;0.60;;;;;;;;;;5012977;28;20101;-60
2022/07/05 10:50:56;;;;;;;1.48;0.85;;;;;;;;;;5012728;28;20389;-60
2022/07/05 10:53:22;;;;;;;0.55;0.55;;;;;;;;;;5012725;28;20030;-60
2022/07/05 10:55:50;;;;;;;0.93;0.83;;;;;;;;;;5012883;28;20022;-60
2022/07/05 10:58:17;;;;;;;0.83;0.53;;;;;;;;;;5007654;28;20034;-60
2022/07/05 11:00:44;;;;;;;0.50;0.50;;;;;;;;;;5007625;28;20034;-60
2022/07/05 11:03:31;;;;;;;2.33;1.03;;;;;;;;;;5007431;28;20461;-60
2022/07/05 11:05:58;;;;;;;1.10;0.80;;;;;;;;;;4994147;28;20481;-60
2022/07/05 11:08:24;;;;;;;3.33;1.30;;;;;;;;;;5012640;28;20030;-60
2022/07/05 11:11:10;;;;;;;1.07;0.97;;;;;;;;;;5012531;28;20049;-60
2022/07/05 11:13:36;;;;;;;;;;;;;;;;;;5012552;28;20110;-60
2022/07/05 11:16:24;;;;;;;10.87;2.30;;;;;;;;;;5012747;28;20367;-60
2022/07/05 11:19:10;;;;;;;2.30;1.70;;;;;;;;;;5010974;28;20022;-60
2022/07/05 11:21:38;;;;;;;2.80;1.67;;;;;;;;;;5006897;28;20034;-59
2022/07/05 11:24:24;;;;;;;2.47;1.20;;;;;;;;;;5007692;28;20393;-60
2022/07/05 11:26:55;;;;;;;1.40;1.07;;;;;;;;;;5007494;28;20030;-60
2022/07/05 11:29:39;;;;;;;3.10;1.73;;;;;;;;;;5009994;28;20092;-60
2022/07/05 11:32:07;;;;;;;1.20;1.00;;;;;;;;;;5012485;28;20069;-60
2022/07/05 11:34:34;;;;;;;0.60;0.57;;;;;;;;;;5012411;28;21164;-60
2022/07/05 11:37:19;;;;;;;1.23;1.00;;;;;;;;;;5015909;28;20116;-60
2022/07/05 11:39:46;;;;;;;0.60;0.60;;;;;;;;;;5015909;28;20022;-60
2022/07/05 11:42:23;;;;;;;0.50;0.50;;;;;;;;;;5012294;28;20117;-62
2022/07/05 11:44:53;;;;;;;2.37;1.10;;;;;;;;;;4991759;28;20030;-60
2022/07/05 11:47:20;;;;;;;0.80;0.57;;;;;;;;;;4991678;28;20376;-60
2022/07/05 11:49:57;;;;;;;0.93;0.70;;;;;;;;;;4991135;28;20046;-60
2022/07/05 11:52:27;;;;;;;3.80;1.20;;;;;;;;;;4995318;28;20434;-60
2022/07/05 11:54:54;;;;;;;0.63;0.63;;;;;;;;;;4996278;28;20034;-60
2022/07/05 11:57:21;;;;;;;0.57;0.50;;;;;;;;;;4996260;28;20486;-60
2022/07/05 11:59:48;;;;;;;2.47;0.57;;;;;;;;;;4996310;28;20050;-60
2022/07/05 12:02:14;;;;;;;1.03;0.70;;;;;;;;;;5010171;28;20026;-60
2022/07/05 12:04:41;;;;;;;1.27;0.67;;;;;;;;;;5011117;28;20393;-60
2022/07/05 12:07:08;;;;;;;1.00;0.77;;;;;;;;;;5010613;28;20030;-60
2022/07/05 12:15:09;;;;;;;0.73;0.70;;;;;;;;;;5015621;28;20041;-60
2022/07/05 12:17:36;;;;;;;1.23;0.57;;;;;;;;;;5015476;28;20081;-60
2022/07/05 12:20:04;;;;;;;1.00;0.70;;;;;;;;;;5015480;28;20033;-60
2022/07/05 12:22:40;;;;;;;0.50;0.50;;;;;;;;;;5015058;28;20026;-60
2022/07/05 12:25:09;;;;;;;0.40;0.40;;;;;;;;;;5014486;28;20029;-60
2022/07/05 12:27:39;;;;;;;2.73;1.57;;;;;;;;;;5010049;28;20105;-60
2022/07/05 12:30:09;;;;;;;2.20;0.93;;;;;;;;;;5010084;28;20034;-61
2022/07/05 12:32:54;;;;;;;0.70;0.50;;;;;;;;;;5009432;28;20030;-60
2022/07/05 12:35:29;;;;;;;3.28;0.80;;;;;;;;;;5011330;28;20040;-60
2022/07/05 12:37:56;;;;;;;1.13;0.88;;;;;;;;;;5015154;28;20481;-60
2022/07/05 12:40:24;;;;;;;2.37;1.33;;;;;;;;;;5015017;28;20080;-60
2022/07/05 12:43:01;;;;;;;0.23;0.23;;;;;;;;;;5014658;28;20034;-60
2022/07/05 12:45:27;;;;;;;4.17;1.33;;;;;;;;;;5015194;28;20026;-60
2022/07/05 12:47:55;;;;;;;0.73;0.63;;;;;;;;;;5011538;28;20064;-61
2022/07/05 12:50:25;;;;;;;1.77;1.10;;;;;;;;;;5009735;28;20054;-60
2022/07/05 12:52:58;;;;;;;0.57;0.47;;;;;;;;;;5009816;28;20033;-60
2022/07/05 12:58:10;;;;;;;0.57;0.45;;;;;;;;;;5011999;28;20049;-59
2022/07/05 13:00:36;;;;;;;1.87;1.27;;;;;;;;;;5014442;28;20523;-60
2022/07/05 13:03:03;;;;;;;0.40;0.20;;;;;;;;;;5014741;28;20569;-60
2022/07/05 13:05:30;;;;;;;0.93;0.53;;;;;;;;;;5014499;28;20032;-61
2022/07/05 13:07:57;;;;;;;0.83;0.73;;;;;;;;;;5014547;28;20033;-60
2022/07/05 13:10:25;;;;;;;0.53;0.43;;;;;;;;;;5011980;28;20026;-60
2022/07/05 13:12:51;;;;;;;0.20;0.20;;;;;;;;;;5009346;28;20022;-60
2022/07/05 13:15:18;;;;;;;0.73;0.43;;;;;;;;;;5009024;28;20120;-60
2022/07/05 13:17:45;;;;;;;0.30;0.27;;;;;;;;;;5009246;28;20034;-60
2022/07/05 13:20:14;;;;;;;0.30;0.20;;;;;;;;;;5011396;28;20022;-60
2022/07/05 13:22:41;;;;;;;1.50;0.67;;;;;;;;;;5014285;28;20048;-60
2022/07/05 13:25:08;;;;;;;0.50;0.40;;;;;;;;;;5014105;28;20049;-60
2022/07/05 13:27:35;;;;;;;0.90;0.60;;;;;;;;;;5014292;28;20054;-60
2022/07/05 13:30:02;;;;;;;0.37;0.33;;;;;;;;;;5013764;28;20030;-60
2022/07/05 13:32:28;;;;;;;1.20;0.53;;;;;;;;;;5011627;28;20477;-60
2022/07/05 13:34:55;;;;;;;2.00;0.63;;;;;;;;;;5008716;28;20032;-60
2022/07/05 13:37:22;;;;;;;0.40;0.40;;;;;;;;;;5008996;28;20084;-60
2022/07/05 13:39:48;;;;;;;1.80;0.77;;;;;;;;;;5009031;28;20030;-60
2022/07/05 13:42:15;;;;;;;0.53;0.50;;;;;;;;;;5010671;28;20076;-60
2022/07/05 13:44:42;;;;;;;0.40;0.33;;;;;;;;;;5014035;28;20026;-60
2022/07/05 13:47:10;;;;;;;0.47;0.43;;;;;;;;;;5013051;28;20109;-60
2022/07/05 13:49:39;;;;;;;0.67;0.40;;;;;;;;;;5013771;28;20103;-60
2022/07/05 13:52:06;;;;;;;0.57;0.50;;;;;;;;;;5013709;28;20062;-60
2022/07/05 13:54:33;;;;;;;0.77;0.40;;;;;;;;;;5011483;28;20067;-60
2022/07/05 13:57:00;;;;;;;0.80;0.43;;;;;;;;;;5008286;28;20030;-60
2022/07/05 13:59:26;;;;;;;0.90;0.80;;;;;;;;;;5006762;28;20037;-60
2022/07/05 14:01:53;;;;;;;0.43;0.30;;;;;;;;;;5007752;28;20109;-60
2022/07/05 14:04:21;;;;;;;0.67;0.53;;;;;;;;;;5009606;28;20036;-60
2022/07/05 14:06:49;;;;;;;0.20;0.10;;;;;;;;;;5013193;28;20545;-60
2022/07/05 14:09:16;;;;;;;0.20;0.20;;;;;;;;;;5013417;28;20109;-60
2022/07/05 14:11:43;;;;;;;0.20;0.17;;;;;;;;;;5013221;28;20026;-60
2022/07/05 14:14:12;;;;;;;0.33;0.23;;;;;;;;;;5013327;28;20036;-60
2022/07/05 14:16:39;;;;;;;1.93;1.00;;;;;;;;;;5010795;28;20041;-60
2022/07/05 14:19:06;;;;;;;2.23;1.33;;;;;;;;;;5008030;28;20512;-60
2022/07/05 14:21:33;;;;;;;2.30;1.67;;;;;;;;;;5007876;28;20030;-60
2022/07/05 14:23:59;;;;;;;2.90;1.63;;;;;;;;;;5007924;28;20037;-60
2022/07/05 14:26:27;;;;;;;0.60;0.47;;;;;;;;;;5009090;28;20030;-60
2022/07/05 14:28:54;;;;;;;1.87;1.20;;;;;;;;;;5013067;28;20033;-60
2022/07/05 14:31:21;;;;;;;1.67;1.17;;;;;;;;;;5012950;28;20576;-60
2022/07/05 14:33:47;;;;;;;6.70;1.60;;;;;;;;;;5012575;28;20033;-60
2022/07/05 14:36:16;;;;;;;1.93;1.33;;;;;;;;;;5012827;28;20381;-60
2022/07/05 14:38:43;;;;;;;6.27;0.70;;;;;;;;;;5010613;28;20026;-60
2022/07/05 14:41:10;;;;;;;4.80;2.30;;;;;;;;;;5007898;28;20028;-61
2022/07/05 14:43:37;;;;;;;2.67;1.73;;;;;;;;;;5007731;28;20026;-60
2022/07/05 14:46:07;;;;;;;2.40;0.97;;;;;;;;;;5007701;28;20372;-60
2022/07/05 14:48:34;;;;;;;1.87;1.17;;;;;;;;;;5007994;28;20481;-60
2022/07/05 14:51:01;;;;;;;0.90;0.63;;;;;;;;;;5012758;28;20022;-60
2022/07/05 14:53:27;;;;;;;1.97;0.70;;;;;;;;;;5012650;28;20088;-60
2022/07/05 14:55:54;;;;;;;0.40;0.30;;;;;;;;;;5012553;28;20026;-60
2022/07/05 14:58:21;;;;;;;0.73;0.27;;;;;;;;;;5012441;28;20037;-60
2022/07/05 15:00:48;;;;;;;0.23;0.23;;;;;;;;;;5011127;28;20034;-60